Time;durP1;ratioP1;P1;durP2;ratioP2;P2;SDS_P1;SDS_P2;PMS_P1;PMS_P2;Temp;Humidity;BMP_temperature;BMP_pressure;BME280_temperature;BME280_humidity;BME280_pressure;Samples;Min_cycle;Max_cycle;Signal;HPM_P1;HPM_P2
2023/05/05 00:01:46;;;;;;;12.75;7.28;;;;;;;12.65;100.00;100789.59;5051148;28;20029;-73
2023/05/05 00:04:11;;;;;;;11.07;7.05;;;;;;;12.67;100.00;100793.09;5050949;28;20029;-73
2023/05/05 00:06:37;;;;;;;10.43;6.28;;;;;;;12.17;100.00;100723.22;5051508;28;20025;-73
2023/05/05 00:09:02;;;;;;;11.75;7.45;;;;;;;12.54;100.00;100790.94;5051213;28;20119;-74
2023/05/05 00:11:28;;;;;;;10.55;6.80;;;;;;;12.58;100.00;100787.63;5051294;28;20083;-73
2023/05/05 00:13:53;;;;;;;10.38;7.03;;;;;;;12.62;100.00;100794.66;5051359;28;20028;-74
2023/05/05 00:16:19;;;;;;;14.48;6.70;;;;;;;12.56;100.00;100787.56;5051006;28;20025;-73
2023/05/05 00:18:44;;;;;;;11.23;7.55;;;;;;;12.45;100.00;100761.31;5032884;28;20497;-74
2023/05/05 00:21:10;;;;;;;13.23;6.68;;;;;;;12.52;100.00;100762.38;5050964;28;20040;-74
2023/05/05 00:23:35;;;;;;;12.77;7.20;;;;;;;12.68;100.00;100788.81;5068380;28;20479;-74
2023/05/05 00:26:00;;;;;;;12.77;6.78;;;;;;;12.68;100.00;100781.03;5071240;28;20458;-73
2023/05/05 00:28:26;;;;;;;11.57;6.85;;;;;;;12.68;100.00;100775.88;5070998;28;20150;-73
2023/05/05 00:30:51;;;;;;;11.60;7.43;;;;;;;12.74;100.00;100789.88;5070621;28;20024;-73
2023/05/05 00:33:17;;;;;;;15.48;7.22;;;;;;;12.20;100.00;100687.13;5070656;28;20024;-74
2023/05/05 00:35:42;;;;;;;13.38;7.80;;;;;;;12.78;100.00;100776.22;5070407;28;20074;-73
2023/05/05 00:38:08;;;;;;;15.55;7.63;;;;;;;12.61;100.00;100746.25;5018577;28;20421;-74
2023/05/05 00:40:35;;;;;;;14.45;7.90;;;;;;;12.78;100.00;100775.31;5070662;28;20024;-73
2023/05/05 00:43:00;;;;;;;17.98;8.23;;;;;;;12.78;100.00;100771.03;5070798;28;20040;-73
2023/05/05 00:45:26;;;;;;;15.93;8.63;;;;;;;12.75;100.00;100770.94;5070647;28;20032;-73
2023/05/05 00:47:53;;;;;;;14.55;7.75;;;;;;;12.78;100.00;100768.47;5070376;28;20034;-74
2023/05/05 00:50:29;;;;;;;10.82;7.35;;;;;;;12.78;100.00;100764.97;5070236;28;20040;-74
2023/05/05 00:52:59;;;;;;;27.33;8.40;;;;;;;12.50;100.00;100716.53;5070393;28;20062;-74
2023/05/05 00:55:25;;;;;;;14.75;7.43;;;;;;;12.71;100.00;100773.34;5070671;28;20108;-73
2023/05/05 00:57:50;;;;;;;14.75;7.50;;;;;;;12.69;100.00;100773.31;5070250;28;20031;-73
2023/05/05 01:00:16;;;;;;;12.13;7.35;;;;;;;12.68;100.00;100781.03;5070183;28;20058;-74
2023/05/05 01:02:43;;;;;;;16.33;7.40;;;;;;;12.53;100.00;100745.16;5069835;28;20032;-74
2023/05/05 01:05:09;;;;;;;16.13;7.47;;;;;;;12.15;100.00;100688.66;5070181;28;20642;-73
2023/05/05 01:07:58;;;;;;;14.38;7.40;;;;;;;12.60;100.00;100773.88;5070293;28;20055;-73
2023/05/05 01:10:42;;;;;;;15.43;7.47;;;;;;;12.58;100.00;100770.34;5070381;28;20142;-73
2023/05/05 01:13:45;;;;;;;14.95;7.65;;;;;;;12.56;100.00;100773.72;5069740;28;20049;-74
2023/05/05 01:16:16;;;;;;;15.10;8.07;;;;;;;12.55;100.00;100770.28;4988556;28;20031;-73
2023/05/05 01:19:08;;;;;;;16.27;8.32;;;;;;;12.42;100.00;100752.56;4988690;28;20053;-73
2023/05/05 01:21:45;;;;;;;16.48;8.30;;;;;;;11.97;100.00;100688.91;4988354;28;20436;-73
2023/05/05 01:24:32;;;;;;;13.05;8.15;;;;;;;12.34;100.00;100760.06;4988447;28;20061;-73
2023/05/05 01:27:18;;;;;;;15.20;8.07;;;;;;;12.31;100.00;100757.34;4988596;28;20034;-75
2023/05/05 01:30:08;;;;;;;17.55;8.00;;;;;;;12.26;100.00;100754.63;4988260;28;20038;-75
2023/05/05 01:32:42;;;;;;;14.77;8.35;;;;;;;12.18;100.00;100758.66;4989923;28;20461;-74
2023/05/05 01:35:13;;;;;;;15.63;8.88;;;;;;;12.10;100.00;100758.38;4992446;28;20116;-74
2023/05/05 01:37:50;;;;;;;16.80;8.55;;;;;;;12.10;100.00;100754.91;4992262;28;20089;-74
2023/05/05 01:40:21;;;;;;;18.67;8.68;;;;;;;12.13;100.00;100752.44;4992295;28;20034;-74
2023/05/05 01:42:50;;;;;;;17.55;7.60;;;;;;;12.12;100.00;100750.66;4992024;28;21210;-74
2023/05/05 01:45:19;;;;;;;12.70;7.70;;;;;;;12.16;100.00;100751.66;4992290;28;20030;-74
2023/05/05 01:47:44;;;;;;;16.58;7.50;;;;;;;12.17;100.00;100758.59;4992584;28;20545;-74
2023/05/05 01:50:12;;;;;;;14.18;7.65;;;;;;;11.97;100.00;100763.94;5034288;28;20033;-74
2023/05/05 01:52:39;;;;;;;12.98;6.95;;;;;;;11.85;100.00;100763.47;5073531;28;20070;-74
2023/05/05 01:55:07;;;;;;;14.20;7.75;;;;;;;11.73;100.00;100761.31;5073775;28;20078;-74
2023/05/05 01:57:34;;;;;;;14.02;7.30;;;;;;;11.73;100.00;100754.44;5073729;28;20043;-74
2023/05/05 02:00:04;;;;;;;14.25;7.00;;;;;;;11.74;100.00;100752.72;5073687;28;20024;-74
2023/05/05 02:02:33;;;;;;;11.65;6.90;;;;;;;11.56;100.00;100722.75;5073706;28;20028;-73
2023/05/05 02:05:01;;;;;;;10.82;6.88;;;;;;;11.74;100.00;100752.72;5073683;28;20025;-74
2023/05/05 02:07:27;;;;;;;11.80;6.65;;;;;;;11.65;100.00;100748.09;5073890;28;20090;-74
2023/05/05 02:09:54;;;;;;;11.05;6.32;;;;;;;11.72;100.00;100750.06;5055731;28;20032;-74
2023/05/05 02:12:21;;;;;;;14.70;6.60;;;;;;;11.71;100.00;100744.84;5073190;28;20123;-74
2023/05/05 02:14:48;;;;;;;10.18;6.85;;;;;;;11.74;100.00;100735.50;5073501;28;20076;-74
2023/05/05 02:17:15;;;;;;;9.90;6.75;;;;;;;11.38;100.00;100668.69;5073237;28;20031;-74
2023/05/05 02:19:44;;;;;;;14.98;6.95;;;;;;;11.84;100.00;100746.16;5073205;28;20024;-73
2023/05/05 02:22:11;;;;;;;14.37;7.30;;;;;;;11.79;100.00;100741.72;5073358;28;20108;-74
2023/05/05 02:24:36;;;;;;;11.75;6.25;;;;;;;11.60;100.00;100700.50;5073094;28;20039;-74
2023/05/05 02:27:05;;;;;;;11.65;6.57;;;;;;;11.95;100.00;100753.50;5073164;28;20036;-74
2023/05/05 02:29:34;;;;;;;9.75;6.22;;;;;;;12.02;100.00;100758.94;5073336;28;20020;-73
2023/05/05 02:32:08;;;;;;;9.88;6.25;;;;;;;11.99;100.00;100739.00;5021022;28;20116;-74
2023/05/05 02:34:40;;;;;;;11.93;6.90;;;;;;;12.05;100.00;100747.00;5054565;28;20490;-73
2023/05/05 02:37:08;;;;;;;14.68;6.60;;;;;;;11.92;100.00;100752.50;5054295;28;20040;-74
2023/05/05 02:39:45;;;;;;;10.32;7.03;;;;;;;11.77;100.00;100751.13;5073333;28;20021;-74
2023/05/05 02:42:17;;;;;;;12.63;7.18;;;;;;;11.38;100.00;100743.66;5054748;28;20033;-74
2023/05/05 02:44:44;;;;;;;12.27;7.28;;;;;;;11.48;100.00;100747.47;5071433;28;20099;-73
2023/05/05 02:47:10;;;;;;;13.57;6.93;;;;;;;11.48;100.00;100756.09;5073213;28;20444;-74
2023/05/05 02:49:35;;;;;;;9.27;6.82;;;;;;;11.48;100.00;100750.94;5072670;28;20024;-73
2023/05/05 02:52:01;;;;;;;9.80;6.68;;;;;;;11.47;100.00;100741.41;5072652;28;20024;-73
2023/05/05 02:54:27;;;;;;;12.07;7.45;;;;;;;11.33;100.00;100756.41;5072703;28;20101;-74
2023/05/05 02:56:54;;;;;;;14.73;7.50;;;;;;;11.24;100.00;100724.13;5072926;28;20062;-73
2023/05/05 02:59:36;;;;;;;11.45;7.20;;;;;;;11.28;100.00;100741.56;5072384;28;20029;-74
2023/05/05 03:02:08;;;;;;;13.88;7.70;;;;;;;11.23;100.00;100738.78;5072645;28;20032;-74
2023/05/05 03:04:44;;;;;;;10.50;6.75;;;;;;;11.05;100.00;100718.25;5072483;28;20047;-73
2023/05/05 03:07:20;;;;;;;12.75;7.20;;;;;;;10.83;100.00;100677.81;5072679;28;20476;-73
2023/05/05 03:09:54;;;;;;;11.88;6.75;;;;;;;11.22;100.00;100751.66;5072461;28;20036;-73
2023/05/05 03:12:26;;;;;;;13.35;6.72;;;;;;;10.56;100.00;100659.53;5016716;28;20053;-73
2023/05/05 03:14:54;;;;;;;12.15;7.00;;;;;;;10.61;100.00;100664.03;5052461;28;20036;-73
2023/05/05 03:17:21;;;;;;;11.65;7.00;;;;;;;10.58;100.00;100663.94;5052222;28;20057;-73
2023/05/05 03:19:48;;;;;;;10.35;6.55;;;;;;;11.06;100.00;100750.16;5050855;28;20450;-73
2023/05/05 03:22:13;;;;;;;15.07;7.32;;;;;;;10.96;100.00;100731.69;5051780;28;20115;-73
2023/05/05 03:24:40;;;;;;;16.02;6.85;;;;;;;11.06;100.00;100751.03;5052345;28;20033;-73
2023/05/05 03:27:05;;;;;;;12.80;6.95;;;;;;;11.11;100.00;100751.22;5052098;28;20082;-73
2023/05/05 03:29:30;;;;;;;11.35;6.47;;;;;;;10.89;100.00;100758.13;5051885;28;20036;-74
2023/05/05 03:31:57;;;;;;;11.07;7.25;;;;;;;10.92;100.00;100762.53;5049808;28;20029;-74
2023/05/05 03:34:22;;;;;;;11.52;6.53;;;;;;;11.02;100.00;100768.97;5050056;28;20442;-74
2023/05/05 03:36:48;;;;;;;11.77;6.85;;;;;;;11.02;100.00;100768.97;5043902;28;20096;-74
2023/05/05 03:39:13;;;;;;;17.55;6.82;;;;;;;10.99;100.00;100761.94;5039616;28;20399;-73
2023/05/05 03:41:39;;;;;;;14.73;6.80;;;;;;;11.08;100.00;100764.00;5031790;28;20037;-73
2023/05/05 03:44:05;;;;;;;12.57;7.57;;;;;;;11.09;100.00;100766.66;5034874;28;20056;-74
2023/05/05 03:46:30;;;;;;;11.32;6.88;;;;;;;11.14;100.00;100767.72;5051768;28;20063;-74
2023/05/05 03:48:56;;;;;;;12.88;7.18;;;;;;;10.78;100.00;100712.88;5051530;28;20025;-74
2023/05/05 03:51:23;;;;;;;11.00;6.95;;;;;;;11.14;100.00;100774.59;5051160;28;20035;-73
2023/05/05 03:53:48;;;;;;;12.77;7.20;;;;;;;11.17;100.00;100780.75;5051430;28;20505;-73
2023/05/05 03:56:13;;;;;;;19.17;7.47;;;;;;;11.19;100.00;100783.44;5051177;28;20028;-74
2023/05/05 03:58:39;;;;;;;10.23;6.63;;;;;;;11.15;100.00;100777.25;5051510;28;20059;-74
2023/05/05 04:01:04;;;;;;;11.00;6.78;;;;;;;11.10;100.00;100764.97;5051236;28;20021;-74
2023/05/05 04:03:30;;;;;;;11.40;6.90;;;;;;;11.28;100.00;100780.31;5051369;28;20036;-73
2023/05/05 04:05:55;;;;;;;13.68;7.18;;;;;;;11.31;100.00;100777.84;5051080;28;20028;-74
2023/05/05 04:08:21;;;;;;;13.63;7.43;;;;;;;11.28;100.00;100780.31;5051266;28;20025;-73
2023/05/05 04:10:46;;;;;;;11.05;6.80;;;;;;;11.27;100.00;100783.72;5051083;28;20448;-73
2023/05/05 04:13:11;;;;;;;10.90;7.13;;;;;;;11.10;100.00;100789.13;5069074;28;20097;-73
2023/05/05 04:15:37;;;;;;;10.70;7.45;;;;;;;11.03;100.00;100769.00;5071306;28;20024;-73
2023/05/05 04:18:03;;;;;;;10.48;7.50;;;;;;;11.17;100.00;100778.16;5061909;28;20033;-74
2023/05/05 04:20:29;;;;;;;12.52;7.53;;;;;;;11.29;100.00;100779.47;5059440;28;20029;-74
2023/05/05 04:22:54;;;;;;;12.77;7.30;;;;;;;11.27;100.00;100786.31;5070121;28;20032;-73
2023/05/05 04:25:19;;;;;;;9.93;6.72;;;;;;;10.71;100.00;100705.75;5061196;28;20021;-74
2023/05/05 04:27:45;;;;;;;12.65;7.80;;;;;;;10.12;100.00;100616.47;5060491;28;20029;-74
2023/05/05 04:30:14;;;;;;;10.80;7.53;;;;;;;11.08;100.00;100784.69;5059771;28;20036;-73
2023/05/05 04:32:39;;;;;;;12.88;8.10;;;;;;;10.96;100.00;100764.41;5058934;28;20447;-75
2023/05/05 04:35:05;;;;;;;14.15;7.57;;;;;;;10.83;100.00;100747.56;5060025;28;20135;-74
2023/05/05 04:37:31;;;;;;;12.48;7.57;;;;;;;10.98;100.00;100768.81;5061105;28;20029;-74
2023/05/05 04:39:56;;;;;;;10.55;7.07;;;;;;;11.03;100.00;100771.59;5059275;28;20398;-75
2023/05/05 04:42:22;;;;;;;12.73;7.55;;;;;;;10.82;100.00;100743.19;5060798;28;20398;-74
2023/05/05 04:44:47;;;;;;;12.93;7.47;;;;;;;10.91;100.00;100750.44;5061771;28;20115;-74
2023/05/05 04:47:12;;;;;;;12.25;7.65;;;;;;;10.57;100.00;100687.97;5067802;28;20102;-74
2023/05/05 04:49:38;;;;;;;12.40;8.35;;;;;;;11.20;100.00;100763.63;5067809;28;20035;-75
2023/05/05 04:52:03;;;;;;;11.35;7.85;;;;;;;11.04;100.00;100705.28;5067995;28;20036;-75
2023/05/05 04:54:29;;;;;;;14.27;7.15;;;;;;;11.50;100.00;100758.72;5068235;28;20485;-75
2023/05/05 04:56:54;;;;;;;13.38;8.63;;;;;;;11.35;100.00;100715.09;5068261;28;20036;-75
2023/05/05 04:59:20;;;;;;;13.50;7.50;;;;;;;11.83;100.00;100776.34;5068050;28;20493;-75
2023/05/05 05:01:45;;;;;;;12.25;7.57;;;;;;;11.82;100.00;100757.38;5067982;28;20040;-75
2023/05/05 05:04:11;;;;;;;10.20;7.40;;;;;;;12.10;100.00;100778.19;5068021;28;20032;-75
2023/05/05 05:06:37;;;;;;;11.60;6.60;;;;;;;12.22;100.00;100776.03;5066292;28;20051;-75
2023/05/05 05:09:02;;;;;;;9.05;6.18;;;;;;;12.29;100.00;100784.91;5067946;28;20437;-74
2023/05/05 05:11:28;;;;;;;10.45;6.78;;;;;;;12.41;100.00;100790.53;5067699;28;20162;-74
2023/05/05 05:13:53;;;;;;;11.27;6.10;;;;;;;12.21;100.00;100737.16;5067826;28;20072;-75
2023/05/05 05:16:19;;;;;;;9.27;5.60;;;;;;;12.61;100.00;100787.72;5067957;28;20103;-74
2023/05/05 05:18:44;;;;;;;10.80;6.13;;;;;;;12.75;100.00;100793.38;5067675;28;20040;-74
2023/05/05 05:21:10;;;;;;;9.40;6.00;;;;;;;12.81;100.00;100791.00;5067825;28;20020;-74
2023/05/05 05:23:35;;;;;;;9.57;5.97;;;;;;;12.66;100.00;100770.63;5066428;28;20037;-75
2023/05/05 05:26:01;;;;;;;10.50;6.05;;;;;;;12.90;100.00;100800.78;5069796;28;20028;-74
2023/05/05 05:28:26;;;;;;;9.88;6.97;;;;;;;12.81;100.00;100770.25;5070175;28;20020;-74
2023/05/05 05:30:52;;;;;;;9.80;5.95;;;;;;;13.07;100.00;100799.59;5069540;28;20483;-74
2023/05/05 05:33:18;;;;;;;8.95;5.40;;;;;;;12.85;100.00;100766.94;5063966;28;20040;-75
2023/05/05 05:35:43;;;;;;;9.15;5.75;;;;;;;13.22;100.00;100808.69;5068136;28;20025;-74
2023/05/05 05:38:09;;;;;;;8.60;6.32;;;;;;;13.26;100.00;100802.78;5066710;28;20487;-74
2023/05/05 05:40:35;;;;;;;7.10;5.50;;;;;;;13.27;100.00;100807.09;5068903;28;20495;-74
2023/05/05 05:43:01;;;;;;;9.18;5.68;;;;;;;13.22;100.00;100798.31;5066833;28;20028;-75
2023/05/05 05:45:27;;;;;;;8.80;5.20;;;;;;;13.33;100.00;100794.34;5068968;28;20020;-74
2023/05/05 05:47:52;;;;;;;7.32;5.03;;;;;;;13.11;100.00;100785.91;5068386;28;20101;-73
2023/05/05 05:50:18;;;;;;;8.60;5.63;;;;;;;13.27;100.00;100807.09;5035114;28;20043;-73
2023/05/05 05:52:43;;;;;;;8.70;5.53;;;;;;;13.35;100.00;100800.47;5069867;28;20393;-74
2023/05/05 05:55:08;;;;;;;9.10;5.47;;;;;;;13.04;100.00;100747.66;5070059;28;20033;-74
2023/05/05 05:57:34;;;;;;;7.70;5.38;;;;;;;13.39;100.00;100791.09;5051509;28;20521;-74
2023/05/05 05:59:59;;;;;;;8.68;5.55;;;;;;;13.63;100.00;100805.63;5068405;28;20115;-73
2023/05/05 06:02:26;;;;;;;8.93;5.72;;;;;;;13.74;100.00;100809.44;5051575;28;20497;-74
2023/05/05 06:04:51;;;;;;;9.43;6.30;;;;;;;13.82;100.00;100809.66;5069298;28;20111;-73
2023/05/05 06:07:17;;;;;;;6.88;4.57;;;;;;;13.92;100.00;100809.09;5069485;28;20029;-74
2023/05/05 06:09:42;;;;;;;7.35;5.22;;;;;;;13.97;100.00;100814.41;5069938;28;20039;-74
2023/05/05 06:12:08;;;;;;;8.30;4.07;;;;;;;14.02;100.00;100816.31;5069563;28;20051;-74
2023/05/05 06:14:34;;;;;;;6.65;4.72;;;;;;;14.11;100.00;100814.81;5069804;28;20545;-74
2023/05/05 06:16:59;;;;;;;6.10;4.63;;;;;;;14.19;100.00;100819.38;5069391;28;20039;-74
2023/05/05 06:19:25;;;;;;;9.05;4.47;;;;;;;14.09;100.00;100796.56;5045589;28;20089;-74
2023/05/05 06:21:50;;;;;;;6.55;4.22;;;;;;;14.33;100.00;100827.56;5063406;28;20025;-74
2023/05/05 06:24:15;;;;;;;6.60;4.97;;;;;;;14.32;100.00;100817.13;5062116;28;20478;-74
2023/05/05 06:26:41;;;;;;;8.80;5.30;;;;;;;14.37;100.00;100807.75;5062657;28;20028;-75
2023/05/05 06:29:06;;;;;;;6.22;4.55;;;;;;;14.49;100.00;100833.16;5064886;28;20119;-74
2023/05/05 06:31:32;;;;;;;7.38;4.60;;;;;;;14.41;100.00;100825.16;5061835;28;20028;-75
2023/05/05 06:33:57;;;;;;;5.68;4.43;;;;;;;14.57;100.00;100823.84;5072571;28;20032;-74
2023/05/05 06:36:23;;;;;;;6.95;4.63;;;;;;;14.49;100.00;100807.16;5073013;28;20028;-74
2023/05/05 06:38:49;;;;;;;5.95;3.97;;;;;;;14.58;100.00;100810.03;5072770;28;20027;-74
2023/05/05 06:41:15;;;;;;;6.50;4.05;;;;;;;14.77;100.00;100819.19;5053774;28;20047;-74
2023/05/05 06:43:41;;;;;;;7.50;4.18;;;;;;;14.63;100.00;100808.44;5072753;28;20405;-74
2023/05/05 06:46:07;;;;;;;6.68;4.53;;;;;;;14.50;100.00;100767.38;5072554;28;20395;-74
2023/05/05 06:48:32;;;;;;;8.18;4.55;;;;;;;14.86;100.00;100823.75;5054654;28;20086;-74
2023/05/05 06:50:58;;;;;;;6.25;4.32;;;;;;;14.80;100.00;100797.59;5072846;28;20021;-74
2023/05/05 06:53:23;;;;;;;7.50;5.30;;;;;;;14.81;100.00;100815.81;5072411;28;20478;-74
2023/05/05 06:55:49;;;;;;;9.73;5.30;;;;;;;14.90;100.00;100815.16;5072537;28;20457;-74
2023/05/05 06:58:14;;;;;;;7.78;4.70;;;;;;;14.99;100.00;100823.22;5072773;28;20489;-74
2023/05/05 07:00:40;;;;;;;9.75;4.68;;;;;;;15.04;100.00;100813.81;5072342;28;20111;-74
2023/05/05 07:03:05;;;;;;;10.02;4.57;;;;;;;14.64;100.00;100737.44;5072600;28;20029;-75
2023/05/05 07:05:31;;;;;;;13.25;3.95;;;;;;;15.18;100.00;100819.31;5072583;28;20021;-74
2023/05/05 07:07:57;;;;;;;8.40;4.20;;;;;;;15.17;100.00;100804.56;5072421;28;20028;-74
2023/05/05 07:10:24;;;;;;;10.35;3.85;;;;;;;15.19;100.00;100805.50;5072382;28;20032;-75
2023/05/05 07:12:50;;;;;;;8.63;3.70;;;;;;;15.19;100.00;100822.81;5072110;28;20061;-74
2023/05/05 07:15:16;;;;;;;7.72;4.20;;;;;;;15.14;100.00;100820.09;5072124;28;20552;-74
2023/05/05 07:17:42;;;;;;;7.93;4.22;;;;;;;15.16;100.00;100822.75;5067964;28;20037;-75
2023/05/05 07:20:10;;;;;;;9.45;3.97;;;;;;;15.23;100.00;100822.03;5056532;28;20036;-75
2023/05/05 07:22:35;;;;;;;5.00;3.90;;;;;;;15.21;100.00;100810.72;5051914;28;20556;-74
2023/05/05 07:25:02;;;;;;;6.00;4.10;;;;;;;15.18;100.00;100821.06;5052168;28;20025;-74
2023/05/05 07:27:29;;;;;;;6.45;4.00;;;;;;;15.31;100.00;100833.50;5052222;28;20401;-74
2023/05/05 07:29:54;;;;;;;8.23;4.13;;;;;;;15.33;100.00;100836.16;5015829;28;20041;-74
2023/05/05 07:32:20;;;;;;;8.60;3.70;;;;;;;15.38;100.00;100829.31;5051829;28;20428;-74
2023/05/05 07:34:45;;;;;;;6.38;3.90;;;;;;;15.10;100.00;100767.97;5052221;28;20024;-74
2023/05/05 07:37:10;;;;;;;8.40;3.70;;;;;;;15.55;100.00;100827.09;5051928;28;20033;-74
2023/05/05 07:39:36;;;;;;;4.55;3.45;;;;;;;15.65;100.00;100836.88;5051420;28;20021;-74
2023/05/05 07:42:01;;;;;;;7.72;3.70;;;;;;;15.68;100.00;100820.44;5051522;28;20411;-74
2023/05/05 07:44:27;;;;;;;5.10;3.83;;;;;;;15.77;100.00;100843.19;5051937;28;20028;-74
2023/05/05 07:46:52;;;;;;;8.48;3.60;;;;;;;15.81;100.00;100845.91;5051503;28;20040;-74
2023/05/05 07:49:18;;;;;;;5.00;3.47;;;;;;;15.70;100.00;100842.16;5032672;28;20029;-74
2023/05/05 07:51:44;;;;;;;7.95;3.88;;;;;;;15.71;100.00;100848.25;5051531;28;20033;-75
2023/05/05 07:54:10;;;;;;;6.75;3.78;;;;;;;15.33;100.00;100790.19;5051759;28;20021;-74
2023/05/05 07:56:36;;;;;;;5.85;3.55;;;;;;;15.72;100.00;100845.69;5051427;28;20057;-74
2023/05/05 07:59:01;;;;;;;7.97;4.03;;;;;;;15.80;100.00;100853.66;5053745;28;20037;-74
2023/05/05 08:01:27;;;;;;;7.22;3.70;;;;;;;15.82;100.00;100847.66;5051040;28;20040;-74
2023/05/05 08:03:52;;;;;;;5.53;3.53;;;;;;;15.96;100.00;100855.78;5051228;28;20032;-74
2023/05/05 08:06:22;;;;;;;5.32;3.75;;;;;;;15.94;100.00;100830.56;5051340;28;20025;-74
2023/05/05 08:08:48;;;;;;;5.15;3.65;;;;;;;16.15;100.00;100840.56;5051234;28;20033;-74
2023/05/05 08:11:14;;;;;;;4.72;3.38;;;;;;;16.23;100.00;100841.56;5050941;28;20119;-74
2023/05/05 08:13:41;;;;;;;6.18;3.67;;;;;;;16.32;100.00;100844.38;5050885;28;20039;-75
2023/05/05 08:16:07;;;;;;;6.20;4.13;;;;;;;16.41;100.00;100837.56;5050849;28;20028;-74
2023/05/05 08:18:36;;;;;;;5.55;3.40;;;;;;;16.47;100.00;100835.06;5051449;28;20079;-73
2023/05/05 08:21:02;;;;;;;6.38;3.70;;;;;;;16.44;100.00;100832.41;5050897;28;20037;-73
2023/05/05 08:23:28;;;;;;;5.28;3.95;;;;;;;16.39;100.00;100836.66;4999704;28;20552;-74
2023/05/05 08:25:53;;;;;;;4.75;3.42;;;;;;;16.39;100.00;100834.06;5050763;28;20040;-74
2023/05/05 08:28:18;;;;;;;5.80;3.78;;;;;;;15.78;100.00;100727.81;5050729;28;20070;-75
2023/05/05 08:30:44;;;;;;;5.78;3.60;;;;;;;16.56;100.00;100843.06;5050563;28;20055;-74
2023/05/05 08:33:09;;;;;;;5.95;3.88;;;;;;;16.71;100.00;100838.97;5050985;28;20029;-74
2023/05/05 08:35:35;;;;;;;4.95;3.80;;;;;;;16.73;100.00;100840.75;5050914;28;20029;-74
2023/05/05 08:38:00;;;;;;;5.20;3.85;;;;;;;16.81;100.00;100830.47;5050695;28;20364;-74
2023/05/05 08:40:32;;;;;;;6.32;4.13;;;;;;;16.83;100.00;100831.34;5015457;28;20067;-74
2023/05/05 08:42:58;;;;;;;5.15;3.78;;;;;;;16.98;100.00;100830.78;5050649;28;20024;-74
2023/05/05 08:45:23;;;;;;;5.90;3.40;;;;;;;17.03;100.00;100829.09;5050834;28;20463;-74
2023/05/05 08:47:49;;;;;;;5.13;3.95;;;;;;;17.06;100.00;100833.50;5050542;28;20029;-74
2023/05/05 08:50:20;;;;;;;6.57;3.88;;;;;;;17.14;100.00;100837.13;5050693;28;20036;-74
2023/05/05 08:52:53;;;;;;;6.95;4.35;;;;;;;17.14;100.00;100831.91;5050584;28;20037;-74
2023/05/05 08:55:27;;;;;;;6.43;3.95;;;;;;;17.25;100.00;100832.06;5050332;28;20025;-74
2023/05/05 08:57:56;;;;;;;4.82;3.80;;;;;;;17.33;100.00;100837.41;5050245;28;20452;-74
2023/05/05 09:00:22;;;;;;;;;;;;;;;17.34;100.00;100840.03;5050653;28;20558;-75
2023/05/05 09:02:48;;;;;;;5.63;4.10;;;;;;;17.41;100.00;100835.78;5050250;28;20003;-74
2023/05/05 09:05:15;;;;;;;6.50;3.55;;;;;;;17.45;100.00;100832.38;5050436;28;20025;-74
2023/05/05 09:07:42;;;;;;;8.75;4.10;;;;;;;17.49;100.00;100834.16;5049982;28;20055;-73
2023/05/05 09:10:10;;;;;;;10.45;5.30;;;;;;;17.55;100.00;100833.38;5050080;28;20090;-74
2023/05/05 09:12:39;;;;;;;7.20;4.03;;;;;;;17.58;100.00;100813.41;5050377;28;20422;-74
2023/05/05 09:15:06;;;;;;;9.65;4.47;;;;;;;17.72;100.00;100825.75;5056870;28;20040;-74
2023/05/05 09:17:32;;;;;;;12.77;5.13;;;;;;;17.48;100.00;100769.75;5018261;28;20046;-73
2023/05/05 09:20:04;;;;;;;5.50;4.40;;;;;;;17.84;100.00;100828.53;5070176;28;20021;-74
2023/05/05 09:22:40;;;;;;;7.32;4.03;;;;;;;17.95;100.00;100815.66;5069621;28;20032;-74
2023/05/05 09:25:08;;;;;;;5.32;4.13;;;;;;;18.13;100.00;100816.72;5069998;28;20036;-74
2023/05/05 09:27:51;;;;;;;8.38;3.78;;;;;;;18.25;100.00;100807.28;5069947;28;20043;-74
2023/05/05 09:30:23;;;;;;;7.25;4.20;;;;;;;18.33;100.00;100809.09;5069978;28;20568;-73
2023/05/05 09:32:53;;;;;;;9.18;4.53;;;;;;;18.22;100.00;100791.56;5070143;28;20036;-76
2023/05/05 09:35:20;;;;;;;8.13;4.35;;;;;;;18.18;100.00;100745.38;5066520;28;20107;-73
2023/05/05 09:37:49;;;;;;;6.25;4.00;;;;;;;18.69;100.00;100799.84;5064445;28;20040;-74
2023/05/05 09:40:16;;;;;;;5.63;3.63;;;;;;;18.84;99.50;100806.97;5058026;28;20117;-73
2023/05/05 09:42:43;;;;;;;5.60;3.20;;;;;;;18.59;100.00;100736.13;5057509;28;20087;-74
2023/05/05 09:45:17;;;;;;;6.68;3.78;;;;;;;18.59;98.58;100746.59;5059541;28;20032;-74
2023/05/05 09:47:47;;;;;;;6.53;4.03;;;;;;;18.54;97.12;100788.41;5061201;28;20037;-74
2023/05/05 09:50:20;;;;;;;8.20;3.80;;;;;;;18.49;100.00;100797.97;5058923;28;20020;-74
2023/05/05 09:52:56;;;;;;;7.78;3.45;;;;;;;18.58;99.71;100791.94;5059184;28;20151;-74
2023/05/05 09:55:22;;;;;;;7.70;4.00;;;;;;;18.58;100.00;100774.50;5062807;28;20090;-73
2023/05/05 09:57:48;;;;;;;7.15;3.70;;;;;;;18.75;98.52;100790.34;5055327;28;20514;-73
2023/05/05 10:00:14;;;;;;;10.73;4.18;;;;;;;18.74;99.11;100779.84;5061064;28;20111;-73
2023/05/05 10:02:40;;;;;;;8.52;3.88;;;;;;;18.87;99.04;100786.94;5063762;28;20060;-73
2023/05/05 10:05:13;;;;;;;4.88;3.22;;;;;;;18.82;97.75;100782.56;5048617;28;20044;-73
2023/05/05 10:07:41;;;;;;;4.95;3.28;;;;;;;18.80;97.85;100777.28;5061977;28;20033;-74
2023/05/05 10:10:12;;;;;;;7.05;3.70;;;;;;;18.68;99.24;100771.94;5039362;28;20414;-73
2023/05/05 10:12:38;;;;;;;8.10;3.55;;;;;;;18.68;99.87;100748.41;5067166;28;20044;-73
2023/05/05 10:15:06;;;;;;;6.25;3.78;;;;;;;18.95;97.08;100773.94;5020840;28;20041;-74
2023/05/05 10:17:35;;;;;;;6.40;3.63;;;;;;;18.64;96.27;100759.72;5072948;28;20028;-74
2023/05/05 10:20:02;;;;;;;5.28;3.50;;;;;;;18.36;98.72;100715.03;5072967;28;20056;-74
2023/05/05 10:22:32;;;;;;;9.10;3.47;;;;;;;18.76;98.43;100767.66;5072668;28;20591;-74
2023/05/05 10:25:13;;;;;;;5.30;3.55;;;;;;;18.65;99.63;100754.50;5072723;28;20023;-73
2023/05/05 10:27:43;;;;;;;7.05;3.65;;;;;;;18.66;99.70;100756.25;5072727;28;20452;-73
2023/05/05 10:30:16;;;;;;;6.82;3.60;;;;;;;18.35;98.90;100701.09;5071952;28;20059;-73
2023/05/05 10:32:53;;;;;;;7.15;3.60;;;;;;;18.69;100.00;100752.78;5071587;28;20460;-73
2023/05/05 10:35:23;;;;;;;5.65;4.18;;;;;;;18.65;100.00;100758.84;5072682;28;20024;-73
2023/05/05 10:37:51;;;;;;;8.50;4.03;;;;;;;18.49;100.00;100750.91;5072158;28;20025;-72
2023/05/05 10:40:16;;;;;;;7.35;4.03;;;;;;;18.49;100.00;100747.38;5072805;28;20082;-73
2023/05/05 10:42:42;;;;;;;9.13;4.60;;;;;;;18.15;100.00;100677.38;5072686;28;20103;-72
2023/05/05 10:45:08;;;;;;;6.63;4.43;;;;;;;18.44;100.00;100749.94;5072550;28;20021;-72
2023/05/05 10:47:35;;;;;;;9.48;4.35;;;;;;;18.44;100.00;100729.03;5071986;28;20031;-72
2023/05/05 10:50:10;;;;;;;6.03;3.65;;;;;;;18.61;100.00;100736.19;5071657;28;20597;-72
2023/05/05 10:53:07;;;;;;;7.68;4.57;;;;;;;18.66;99.57;100713.53;5071927;28;20101;-72
2023/05/05 10:55:43;;;;;;;5.78;3.95;;;;;;;19.04;98.13;100733.88;5071711;28;20044;-73
2023/05/05 10:58:33;;;;;;;6.13;3.90;;;;;;;19.43;97.09;100713.13;5029195;28;20463;-72
2023/05/05 11:00:59;;;;;;;9.65;4.53;;;;;;;19.47;98.17;100717.53;5029083;28;20415;-71
2023/05/05 11:03:25;;;;;;;8.48;4.57;;;;;;;19.13;98.45;100621.41;5029471;28;20033;-73
2023/05/05 11:06:07;;;;;;;8.00;4.07;;;;;;;19.55;93.10;100639.88;5027919;28;20089;-72
2023/05/05 11:08:41;;;;;;;11.43;4.43;;;;;;;19.86;95.68;100711.59;5029076;28;20097;-72
2023/05/05 11:11:09;;;;;;;4.78;3.50;;;;;;;19.84;95.01;100715.09;5028729;28;20676;-72
2023/05/05 11:13:35;;;;;;;10.07;4.07;;;;;;;20.10;95.02;100696.78;5028366;28;20105;-72
2023/05/05 11:16:01;;;;;;;7.60;3.72;;;;;;;20.15;94.00;100691.53;5029869;28;20423;-73
2023/05/05 11:18:35;;;;;;;5.95;3.35;;;;;;;20.28;92.04;100703.78;5029373;28;20033;-72